sensor_id;sensor_type;location;lat;lon;timestamp;temperature;humidity
15286;DHT22;7744;52.172;10.668;2023-04-15T00:00:33;6.80;99.90
15286;DHT22;7744;52.172;10.668;2023-04-15T00:02:59;6.80;99.90
15286;DHT22;7744;52.172;10.668;2023-04-15T00:05:28;6.80;99.90
15286;DHT22;7744;52.172;10.668;2023-04-15T00:07:54;6.80;99.90
15286;DHT22;7744;52.172;10.668;2023-04-15T00:10:19;6.80;99.90
15286;DHT22;7744;52.172;10.668;2023-04-15T00:12:45;6.80;99.90
15286;DHT22;7744;52.172;10.668;2023-04-15T00:15:10;6.80;99.90
15286;DHT22;7744;52.172;10.668;2023-04-15T00:17:36;6.80;99.90
15286;DHT22;7744;52.172;10.668;2023-04-15T00:20:04;6.80;99.90
15286;DHT22;7744;52.172;10.668;2023-04-15T00:22:31;6.90;99.90
15286;DHT22;7744;52.172;10.668;2023-04-15T00:24:57;6.80;99.90
15286;DHT22;7744;52.172;10.668;2023-04-15T00:27:22;6.80;99.90
15286;DHT22;7744;52.172;10.668;2023-04-15T00:29:48;6.80;99.90
15286;DHT22;7744;52.172;10.668;2023-04-15T00:32:14;6.80;99.90
15286;DHT22;7744;52.172;10.668;2023-04-15T00:34:40;6.80;99.90
15286;DHT22;7744;52.172;10.668;2023-04-15T00:37:06;6.80;99.90
15286;DHT22;7744;52.172;10.668;2023-04-15T00:39:31;6.90;99.90
15286;DHT22;7744;52.172;10.668;2023-04-15T00:41:57;6.90;1.00
15286;DHT22;7744;52.172;10.668;2023-04-15T00:44:22;6.90;1.00
15286;DHT22;7744;52.172;10.668;2023-04-15T00:46:50;6.80;1.00
15286;DHT22;7744;52.172;10.668;2023-04-15T00:49:16;6.80;1.00
15286;DHT22;7744;52.172;10.668;2023-04-15T00:51:42;6.90;1.00
15286;DHT22;7744;52.172;10.668;2023-04-15T00:54:09;6.80;1.00
15286;DHT22;7744;52.172;10.668;2023-04-15T00:56:35;6.80;1.00
15286;DHT22;7744;52.172;10.668;2023-04-15T00:59:02;6.80;1.00
15286;DHT22;7744;52.172;10.668;2023-04-15T01:01:28;6.90;1.00
15286;DHT22;7744;52.172;10.668;2023-04-15T01:03:57;6.90;1.00
15286;DHT22;7744;52.172;10.668;2023-04-15T01:06:23;6.90;1.00
15286;DHT22;7744;52.172;10.668;2023-04-15T01:08:49;6.90;1.00
15286;DHT22;7744;52.172;10.668;2023-04-15T01:11:16;6.90;1.00
15286;DHT22;7744;52.172;10.668;2023-04-15T01:13:41;6.90;1.00
15286;DHT22;7744;52.172;10.668;2023-04-15T01:16:08;6.90;1.00
15286;DHT22;7744;52.172;10.668;2023-04-15T01:18:35;6.80;1.00
15286;DHT22;7744;52.172;10.668;2023-04-15T01:21:02;6.90;3.40
15286;DHT22;7744;52.172;10.668;2023-04-15T01:23:29;6.90;24.10
15286;DHT22;7744;52.172;10.668;2023-04-15T01:25:55;6.80;98.10
15286;DHT22;7744;52.172;10.668;2023-04-15T01:28:21;6.80;99.90
15286;DHT22;7744;52.172;10.668;2023-04-15T01:30:46;6.90;99.90
15286;DHT22;7744;52.172;10.668;2023-04-15T01:33:12;6.90;99.90
15286;DHT22;7744;52.172;10.668;2023-04-15T01:35:38;6.80;99.90
15286;DHT22;7744;52.172;10.668;2023-04-15T01:38:09;6.80;99.90
15286;DHT22;7744;52.172;10.668;2023-04-15T01:40:35;6.90;1.00
15286;DHT22;7744;52.172;10.668;2023-04-15T01:43:01;6.80;1.00
15286;DHT22;7744;52.172;10.668;2023-04-15T01:45:28;6.90;1.00
15286;DHT22;7744;52.172;10.668;2023-04-15T01:47:54;6.90;1.00
15286;DHT22;7744;52.172;10.668;2023-04-15T01:50:20;6.90;1.00
15286;DHT22;7744;52.172;10.668;2023-04-15T01:52:46;6.90;1.00
15286;DHT22;7744;52.172;10.668;2023-04-15T01:55:12;6.90;1.00
15286;DHT22;7744;52.172;10.668;2023-04-15T01:57:37;7.00;1.00
15286;DHT22;7744;52.172;10.668;2023-04-15T02:00:04;8.10;1.00
15286;DHT22;7744;52.172;10.668;2023-04-15T02:02:29;7.00;99.90
15286;DHT22;7744;52.172;10.668;2023-04-15T02:04:55;6.90;99.90
15286;DHT22;7744;52.172;10.668;2023-04-15T02:07:20;6.90;99.90
15286;DHT22;7744;52.172;10.668;2023-04-15T02:09:46;7.00;99.90
15286;DHT22;7744;52.172;10.668;2023-04-15T02:12:12;7.00;99.90
15286;DHT22;7744;52.172;10.668;2023-04-15T02:14:38;7.00;99.90
15286;DHT22;7744;52.172;10.668;2023-04-15T02:17:03;7.00;1.00
15286;DHT22;7744;52.172;10.668;2023-04-15T02:19:33;7.00;1.00
15286;DHT22;7744;52.172;10.668;2023-04-15T02:21:59;6.90;99.90
15286;DHT22;7744;52.172;10.668;2023-04-15T02:24:26;6.80;1.00
15286;DHT22;7744;52.172;10.668;2023-04-15T02:26:51;6.80;1.00
15286;DHT22;7744;52.172;10.668;2023-04-15T02:29:17;6.80;1.00
15286;DHT22;7744;52.172;10.668;2023-04-15T02:31:42;6.80;1.00
15286;DHT22;7744;52.172;10.668;2023-04-15T02:34:09;6.80;1.00
15286;DHT22;7744;52.172;10.668;2023-04-15T02:36:35;6.70;99.90
15286;DHT22;7744;52.172;10.668;2023-04-15T02:39:00;6.70;99.90
15286;DHT22;7744;52.172;10.668;2023-04-15T02:41:26;6.70;1.00
15286;DHT22;7744;52.172;10.668;2023-04-15T02:43:53;6.70;1.00
15286;DHT22;7744;52.172;10.668;2023-04-15T02:46:18;6.70;1.00
15286;DHT22;7744;52.172;10.668;2023-04-15T02:48:46;6.70;99.90
15286;DHT22;7744;52.172;10.668;2023-04-15T02:51:16;6.60;1.00
15286;DHT22;7744;52.172;10.668;2023-04-15T02:53:44;6.60;1.00
15286;DHT22;7744;52.172;10.668;2023-04-15T02:56:09;6.60;99.90
15286;DHT22;7744;52.172;10.668;2023-04-15T02:58:36;6.50;1.00
15286;DHT22;7744;52.172;10.668;2023-04-15T03:01:02;6.60;1.00
15286;DHT22;7744;52.172;10.668;2023-04-15T03:03:27;6.60;1.00
15286;DHT22;7744;52.172;10.668;2023-04-15T03:05:53;6.50;1.00
15286;DHT22;7744;52.172;10.668;2023-04-15T03:08:19;6.50;99.90
15286;DHT22;7744;52.172;10.668;2023-04-15T03:10:45;6.40;1.00
15286;DHT22;7744;52.172;10.668;2023-04-15T03:13:11;6.50;1.00
15286;DHT22;7744;52.172;10.668;2023-04-15T03:15:37;6.50;1.00
15286;DHT22;7744;52.172;10.668;2023-04-15T03:18:03;6.60;1.00
15286;DHT22;7744;52.172;10.668;2023-04-15T03:20:28;6.50;1.00
15286;DHT22;7744;52.172;10.668;2023-04-15T03:22:54;6.50;1.00
15286;DHT22;7744;52.172;10.668;2023-04-15T03:25:20;6.50;99.90
15286;DHT22;7744;52.172;10.668;2023-04-15T03:27:45;6.50;1.00
15286;DHT22;7744;52.172;10.668;2023-04-15T03:30:11;6.50;1.00
15286;DHT22;7744;52.172;10.668;2023-04-15T03:32:38;6.50;99.90
15286;DHT22;7744;52.172;10.668;2023-04-15T03:35:03;6.50;99.90
15286;DHT22;7744;52.172;10.668;2023-04-15T03:37:29;6.60;99.90
15286;DHT22;7744;52.172;10.668;2023-04-15T03:39:54;6.50;99.90
15286;DHT22;7744;52.172;10.668;2023-04-15T03:42:20;6.60;99.90
15286;DHT22;7744;52.172;10.668;2023-04-15T03:44:46;6.60;1.00
15286;DHT22;7744;52.172;10.668;2023-04-15T03:47:12;6.50;1.00
15286;DHT22;7744;52.172;10.668;2023-04-15T03:49:37;5.70;1.00
15286;DHT22;7744;52.172;10.668;2023-04-15T03:52:03;6.50;99.90
15286;DHT22;7744;52.172;10.668;2023-04-15T03:54:28;6.50;99.90
15286;DHT22;7744;52.172;10.668;2023-04-15T03:56:54;6.50;99.90
15286;DHT22;7744;52.172;10.668;2023-04-15T03:59:21;6.50;1.00
15286;DHT22;7744;52.172;10.668;2023-04-15T04:01:46;6.50;1.00
15286;DHT22;7744;52.172;10.668;2023-04-15T04:04:12;6.50;1.00
15286;DHT22;7744;52.172;10.668;2023-04-15T04:06:38;6.60;1.00
15286;DHT22;7744;52.172;10.668;2023-04-15T04:09:04;6.50;1.00
15286;DHT22;7744;52.172;10.668;2023-04-15T04:11:29;6.40;51.00
15286;DHT22;7744;52.172;10.668;2023-04-15T04:13:55;6.50;99.90
15286;DHT22;7744;52.172;10.668;2023-04-15T04:16:20;6.40;99.90
15286;DHT22;7744;52.172;10.668;2023-04-15T04:18:46;6.40;99.90
15286;DHT22;7744;52.172;10.668;2023-04-15T04:21:11;6.50;1.00
15286;DHT22;7744;52.172;10.668;2023-04-15T04:23:37;6.40;1.00
15286;DHT22;7744;52.172;10.668;2023-04-15T04:26:03;6.40;1.00
15286;DHT22;7744;52.172;10.668;2023-04-15T04:28:28;6.50;1.00
15286;DHT22;7744;52.172;10.668;2023-04-15T04:30:55;6.50;1.00
15286;DHT22;7744;52.172;10.668;2023-04-15T04:33:20;6.50;1.00
15286;DHT22;7744;52.172;10.668;2023-04-15T04:35:46;6.50;1.00
15286;DHT22;7744;52.172;10.668;2023-04-15T04:38:11;6.50;1.00
15286;DHT22;7744;52.172;10.668;2023-04-15T04:40:37;6.50;1.00
15286;DHT22;7744;52.172;10.668;2023-04-15T04:43:02;6.50;5.20
15286;DHT22;7744;52.172;10.668;2023-04-15T04:45:28;6.60;70.70
15286;DHT22;7744;52.172;10.668;2023-04-15T04:47:54;6.60;25.80
15286;DHT22;7744;52.172;10.668;2023-04-15T04:50:19;7.20;22.20
15286;DHT22;7744;52.172;10.668;2023-04-15T04:52:45;6.60;6.00
15286;DHT22;7744;52.172;10.668;2023-04-15T04:55:11;6.60;1.00
15286;DHT22;7744;52.172;10.668;2023-04-15T04:57:36;6.70;1.00
15286;DHT22;7744;52.172;10.668;2023-04-15T05:00:05;6.60;1.00
15286;DHT22;7744;52.172;10.668;2023-04-15T05:02:30;6.60;1.00
15286;DHT22;7744;52.172;10.668;2023-04-15T05:04:56;6.60;99.90
15286;DHT22;7744;52.172;10.668;2023-04-15T05:07:22;6.70;99.90
15286;DHT22;7744;52.172;10.668;2023-04-15T05:09:48;6.70;91.40
15286;DHT22;7744;52.172;10.668;2023-04-15T05:12:13;6.70;44.00
15286;DHT22;7744;52.172;10.668;2023-04-15T05:14:42;6.80;1.00
15286;DHT22;7744;52.172;10.668;2023-04-15T05:17:08;6.90;1.00
15286;DHT22;7744;52.172;10.668;2023-04-15T05:19:33;6.80;1.00
15286;DHT22;7744;52.172;10.668;2023-04-15T05:21:59;6.80;1.00
15286;DHT22;7744;52.172;10.668;2023-04-15T05:24:25;6.80;1.00
15286;DHT22;7744;52.172;10.668;2023-04-15T05:26:50;6.70;1.00
15286;DHT22;7744;52.172;10.668;2023-04-15T05:29:16;6.80;1.00
15286;DHT22;7744;52.172;10.668;2023-04-15T05:31:42;6.70;1.00
15286;DHT22;7744;52.172;10.668;2023-04-15T05:34:08;6.70;1.00
15286;DHT22;7744;52.172;10.668;2023-04-15T05:36:33;6.70;1.00
15286;DHT22;7744;52.172;10.668;2023-04-15T05:38:59;6.70;1.00
15286;DHT22;7744;52.172;10.668;2023-04-15T05:41:25;6.60;1.00
15286;DHT22;7744;52.172;10.668;2023-04-15T05:43:50;6.50;99.90
15286;DHT22;7744;52.172;10.668;2023-04-15T05:46:16;6.50;99.90
15286;DHT22;7744;52.172;10.668;2023-04-15T05:48:41;6.50;99.90
15286;DHT22;7744;52.172;10.668;2023-04-15T05:51:07;6.50;1.00
15286;DHT22;7744;52.172;10.668;2023-04-15T05:53:33;6.50;1.00
15286;DHT22;7744;52.172;10.668;2023-04-15T05:55:59;6.60;1.00
15286;DHT22;7744;52.172;10.668;2023-04-15T05:58:24;6.50;1.00
15286;DHT22;7744;52.172;10.668;2023-04-15T06:00:51;6.50;1.00
15286;DHT22;7744;52.172;10.668;2023-04-15T06:03:17;6.60;1.00
15286;DHT22;7744;52.172;10.668;2023-04-15T06:05:42;6.70;1.00
15286;DHT22;7744;52.172;10.668;2023-04-15T06:08:09;6.70;1.00
15286;DHT22;7744;52.172;10.668;2023-04-15T06:10:35;7.90;1.00
15286;DHT22;7744;52.172;10.668;2023-04-15T06:13:02;6.70;99.90
15286;DHT22;7744;52.172;10.668;2023-04-15T06:15:28;6.80;99.90
15286;DHT22;7744;52.172;10.668;2023-04-15T06:17:54;6.80;99.90
15286;DHT22;7744;52.172;10.668;2023-04-15T06:20:19;6.90;99.90
15286;DHT22;7744;52.172;10.668;2023-04-15T06:22:45;6.90;99.90
15286;DHT22;7744;52.172;10.668;2023-04-15T06:25:11;6.90;99.90
15286;DHT22;7744;52.172;10.668;2023-04-15T06:27:36;6.70;99.90
15286;DHT22;7744;52.172;10.668;2023-04-15T06:30:02;6.70;99.90
15286;DHT22;7744;52.172;10.668;2023-04-15T06:32:28;6.80;99.90
15286;DHT22;7744;52.172;10.668;2023-04-15T06:34:54;6.80;99.90
15286;DHT22;7744;52.172;10.668;2023-04-15T06:37:19;6.80;99.90
15286;DHT22;7744;52.172;10.668;2023-04-15T06:39:45;6.80;99.90
15286;DHT22;7744;52.172;10.668;2023-04-15T06:42:11;6.80;99.90
15286;DHT22;7744;52.172;10.668;2023-04-15T06:44:37;6.90;99.90
15286;DHT22;7744;52.172;10.668;2023-04-15T06:47:03;6.80;99.90
15286;DHT22;7744;52.172;10.668;2023-04-15T06:49:28;6.80;99.90
15286;DHT22;7744;52.172;10.668;2023-04-15T06:51:54;6.80;99.90
15286;DHT22;7744;52.172;10.668;2023-04-15T06:54:20;6.90;99.90
15286;DHT22;7744;52.172;10.668;2023-04-15T06:56:45;7.00;99.90
15286;DHT22;7744;52.172;10.668;2023-04-15T06:59:11;7.00;99.90
15286;DHT22;7744;52.172;10.668;2023-04-15T07:01:39;7.10;99.90
15286;DHT22;7744;52.172;10.668;2023-04-15T07:04:05;7.10;99.90
15286;DHT22;7744;52.172;10.668;2023-04-15T07:06:31;7.10;99.90
15286;DHT22;7744;52.172;10.668;2023-04-15T07:08:57;7.10;99.90
15286;DHT22;7744;52.172;10.668;2023-04-15T07:11:24;7.10;61.00
15286;DHT22;7744;52.172;10.668;2023-04-15T07:13:50;7.00;99.90
15286;DHT22;7744;52.172;10.668;2023-04-15T07:16:15;6.90;99.90
15286;DHT22;7744;52.172;10.668;2023-04-15T07:18:41;7.00;99.90
15286;DHT22;7744;52.172;10.668;2023-04-15T07:21:08;7.00;99.90
15286;DHT22;7744;52.172;10.668;2023-04-15T07:23:33;7.10;1.00
15286;DHT22;7744;52.172;10.668;2023-04-15T07:25:59;7.00;99.90
15286;DHT22;7744;52.172;10.668;2023-04-15T07:28:26;6.90;1.00
15286;DHT22;7744;52.172;10.668;2023-04-15T07:30:51;7.00;1.00
15286;DHT22;7744;52.172;10.668;2023-04-15T07:33:17;7.00;1.00
15286;DHT22;7744;52.172;10.668;2023-04-15T07:35:43;7.00;1.00
15286;DHT22;7744;52.172;10.668;2023-04-15T07:38:09;7.10;1.00
15286;DHT22;7744;52.172;10.668;2023-04-15T07:40:37;7.10;1.00
15286;DHT22;7744;52.172;10.668;2023-04-15T07:43:03;7.10;1.00
15286;DHT22;7744;52.172;10.668;2023-04-15T07:45:30;7.10;1.00
15286;DHT22;7744;52.172;10.668;2023-04-15T07:47:56;7.10;1.00
15286;DHT22;7744;52.172;10.668;2023-04-15T07:50:22;7.10;1.00
15286;DHT22;7744;52.172;10.668;2023-04-15T07:52:49;7.10;1.00
15286;DHT22;7744;52.172;10.668;2023-04-15T07:55:16;7.10;1.00
15286;DHT22;7744;52.172;10.668;2023-04-15T07:57:44;7.10;1.00
15286;DHT22;7744;52.172;10.668;2023-04-15T08:00:11;7.10;1.00
15286;DHT22;7744;52.172;10.668;2023-04-15T08:02:37;7.00;1.00
15286;DHT22;7744;52.172;10.668;2023-04-15T08:05:03;7.00;1.00
15286;DHT22;7744;52.172;10.668;2023-04-15T08:07:29;7.00;1.00
15286;DHT22;7744;52.172;10.668;2023-04-15T08:09:55;7.10;1.00
15286;DHT22;7744;52.172;10.668;2023-04-15T08:12:21;7.00;1.00
15286;DHT22;7744;52.172;10.668;2023-04-15T08:14:46;7.10;1.00
15286;DHT22;7744;52.172;10.668;2023-04-15T08:17:15;7.20;1.00
15286;DHT22;7744;52.172;10.668;2023-04-15T08:19:41;7.30;1.00
15286;DHT22;7744;52.172;10.668;2023-04-15T08:22:07;7.20;1.00
15286;DHT22;7744;52.172;10.668;2023-04-15T08:24:33;7.30;1.00
15286;DHT22;7744;52.172;10.668;2023-04-15T08:26:59;7.20;1.00
15286;DHT22;7744;52.172;10.668;2023-04-15T08:29:25;7.20;1.00
15286;DHT22;7744;52.172;10.668;2023-04-15T08:31:52;7.20;1.00
15286;DHT22;7744;52.172;10.668;2023-04-15T08:34:18;7.30;1.00
15286;DHT22;7744;52.172;10.668;2023-04-15T08:36:44;7.20;1.00
15286;DHT22;7744;52.172;10.668;2023-04-15T08:39:09;7.20;1.00
15286;DHT22;7744;52.172;10.668;2023-04-15T08:41:46;7.30;1.00
15286;DHT22;7744;52.172;10.668;2023-04-15T08:44:13;7.30;1.00
15286;DHT22;7744;52.172;10.668;2023-04-15T08:46:40;7.30;1.00
15286;DHT22;7744;52.172;10.668;2023-04-15T08:49:09;7.30;1.00
15286;DHT22;7744;52.172;10.668;2023-04-15T08:51:37;7.40;1.00
15286;DHT22;7744;52.172;10.668;2023-04-15T08:54:03;7.30;1.00
15286;DHT22;7744;52.172;10.668;2023-04-15T08:56:30;7.40;1.00
15286;DHT22;7744;52.172;10.668;2023-04-15T08:58:59;7.40;1.00
15286;DHT22;7744;52.172;10.668;2023-04-15T09:01:26;7.40;1.00
15286;DHT22;7744;52.172;10.668;2023-04-15T09:03:52;7.50;1.00
15286;DHT22;7744;52.172;10.668;2023-04-15T09:06:22;7.50;1.00
15286;DHT22;7744;52.172;10.668;2023-04-15T09:08:48;7.50;1.00
15286;DHT22;7744;52.172;10.668;2023-04-15T09:11:14;7.60;1.00
15286;DHT22;7744;52.172;10.668;2023-04-15T09:13:42;7.60;1.00
15286;DHT22;7744;52.172;10.668;2023-04-15T09:16:07;7.70;1.00
15286;DHT22;7744;52.172;10.668;2023-04-15T09:18:35;7.90;1.00
15286;DHT22;7744;52.172;10.668;2023-04-15T09:21:05;7.90;1.00
15286;DHT22;7744;52.172;10.668;2023-04-15T09:23:33;7.80;1.00
15286;DHT22;7744;52.172;10.668;2023-04-15T09:26:00;7.80;1.00
15286;DHT22;7744;52.172;10.668;2023-04-15T09:28:27;7.80;1.00
15286;DHT22;7744;52.172;10.668;2023-04-15T09:30:59;7.90;1.00
15286;DHT22;7744;52.172;10.668;2023-04-15T09:33:27;7.80;1.00
15286;DHT22;7744;52.172;10.668;2023-04-15T09:35:57;7.90;1.00
15286;DHT22;7744;52.172;10.668;2023-04-15T09:38:23;7.90;1.00
15286;DHT22;7744;52.172;10.668;2023-04-15T09:40:49;7.90;1.00
15286;DHT22;7744;52.172;10.668;2023-04-15T09:43:14;8.00;1.00
15286;DHT22;7744;52.172;10.668;2023-04-15T09:45:53;8.10;1.00
15286;DHT22;7744;52.172;10.668;2023-04-15T09:48:23;8.10;1.00
15286;DHT22;7744;52.172;10.668;2023-04-15T09:50:55;8.00;1.00
15286;DHT22;7744;52.172;10.668;2023-04-15T09:53:23;7.90;1.00
15286;DHT22;7744;52.172;10.668;2023-04-15T09:55:51;7.90;1.00
15286;DHT22;7744;52.172;10.668;2023-04-15T09:58:27;7.90;1.00
15286;DHT22;7744;52.172;10.668;2023-04-15T10:00:55;8.00;1.00
15286;DHT22;7744;52.172;10.668;2023-04-15T10:03:26;7.90;1.00
15286;DHT22;7744;52.172;10.668;2023-04-15T10:05:53;8.00;1.00
15286;DHT22;7744;52.172;10.668;2023-04-15T10:08:23;8.00;1.00
15286;DHT22;7744;52.172;10.668;2023-04-15T10:10:50;8.00;1.00
15286;DHT22;7744;52.172;10.668;2023-04-15T10:13:23;8.00;1.00
15286;DHT22;7744;52.172;10.668;2023-04-15T10:15:53;8.10;1.00
15286;DHT22;7744;52.172;10.668;2023-04-15T10:18:20;8.10;1.00
15286;DHT22;7744;52.172;10.668;2023-04-15T10:20:48;8.20;1.00
15286;DHT22;7744;52.172;10.668;2023-04-15T10:23:14;8.10;1.00
15286;DHT22;7744;52.172;10.668;2023-04-15T10:25:42;8.10;1.00
15286;DHT22;7744;52.172;10.668;2023-04-15T10:28:08;8.10;1.00
15286;DHT22;7744;52.172;10.668;2023-04-15T10:30:34;8.10;1.00
15286;DHT22;7744;52.172;10.668;2023-04-15T10:33:02;8.20;1.00
15286;DHT22;7744;52.172;10.668;2023-04-15T10:35:30;8.30;1.00
15286;DHT22;7744;52.172;10.668;2023-04-15T10:37:56;8.30;1.00
15286;DHT22;7744;52.172;10.668;2023-04-15T10:40:29;8.30;1.00
15286;DHT22;7744;52.172;10.668;2023-04-15T10:43:02;8.30;1.00
15286;DHT22;7744;52.172;10.668;2023-04-15T10:45:32;8.30;1.00
15286;DHT22;7744;52.172;10.668;2023-04-15T10:48:01;8.30;1.00
15286;DHT22;7744;52.172;10.668;2023-04-15T10:50:30;8.30;1.00
15286;DHT22;7744;52.172;10.668;2023-04-15T10:52:57;8.40;1.00
15286;DHT22;7744;52.172;10.668;2023-04-15T10:55:25;8.40;99.90
15286;DHT22;7744;52.172;10.668;2023-04-15T10:57:52;8.40;99.90
15286;DHT22;7744;52.172;10.668;2023-04-15T11:00:20;8.40;99.90
15286;DHT22;7744;52.172;10.668;2023-04-15T11:03:04;8.50;99.90
15286;DHT22;7744;52.172;10.668;2023-04-15T11:05:50;8.60;99.90
15286;DHT22;7744;52.172;10.668;2023-04-15T11:08:16;8.50;99.90
15286;DHT22;7744;52.172;10.668;2023-04-15T11:15:42;8.40;99.90
15286;DHT22;7744;52.172;10.668;2023-04-15T11:18:14;8.40;99.90
15286;DHT22;7744;52.172;10.668;2023-04-15T11:20:42;8.80;99.90
15286;DHT22;7744;52.172;10.668;2023-04-15T11:23:09;8.50;99.90
15286;DHT22;7744;52.172;10.668;2023-04-15T11:25:35;8.50;99.90
15286;DHT22;7744;52.172;10.668;2023-04-15T11:28:04;8.50;99.90
15286;DHT22;7744;52.172;10.668;2023-04-15T11:30:33;8.60;99.90
15286;DHT22;7744;52.172;10.668;2023-04-15T11:33:07;8.60;99.90
15286;DHT22;7744;52.172;10.668;2023-04-15T11:35:33;8.50;62.00
15286;DHT22;7744;52.172;10.668;2023-04-15T11:38:09;8.50;60.40
15286;DHT22;7744;52.172;10.668;2023-04-15T11:40:36;8.50;1.00
15286;DHT22;7744;52.172;10.668;2023-04-15T11:43:16;8.50;23.40
15286;DHT22;7744;52.172;10.668;2023-04-15T11:48:17;8.50;94.20
15286;DHT22;7744;52.172;10.668;2023-04-15T11:50:43;8.50;99.90
15286;DHT22;7744;52.172;10.668;2023-04-15T11:53:10;8.60;99.90
15286;DHT22;7744;52.172;10.668;2023-04-15T12:00:45;8.80;59.40
15286;DHT22;7744;52.172;10.668;2023-04-15T12:06:23;8.80;1.00
15286;DHT22;7744;52.172;10.668;2023-04-15T12:08:50;8.80;99.90
15286;DHT22;7744;52.172;10.668;2023-04-15T12:11:17;8.80;99.90
15286;DHT22;7744;52.172;10.668;2023-04-15T12:13:47;8.70;1.00
15286;DHT22;7744;52.172;10.668;2023-04-15T12:16:17;8.70;1.00
15286;DHT22;7744;52.172;10.668;2023-04-15T12:18:50;8.80;1.00
15286;DHT22;7744;52.172;10.668;2023-04-15T12:21:18;8.70;99.90
15286;DHT22;7744;52.172;10.668;2023-04-15T12:23:54;8.80;1.00
15286;DHT22;7744;52.172;10.668;2023-04-15T12:26:50;8.70;99.90
15286;DHT22;7744;52.172;10.668;2023-04-15T12:29:17;8.80;99.90
15286;DHT22;7744;52.172;10.668;2023-04-15T12:34:13;8.90;1.00
15286;DHT22;7744;52.172;10.668;2023-04-15T12:36:39;8.90;1.00
15286;DHT22;7744;52.172;10.668;2023-04-15T12:39:05;9.00;99.90
15286;DHT22;7744;52.172;10.668;2023-04-15T12:41:31;9.00;99.90
15286;DHT22;7744;52.172;10.668;2023-04-15T12:43:58;8.90;1.00
15286;DHT22;7744;52.172;10.668;2023-04-15T12:46:24;9.00;99.90
15286;DHT22;7744;52.172;10.668;2023-04-15T12:48:50;8.90;1.00
15286;DHT22;7744;52.172;10.668;2023-04-15T12:51:19;9.00;1.00
15286;DHT22;7744;52.172;10.668;2023-04-15T12:53:47;9.10;1.00
15286;DHT22;7744;52.172;10.668;2023-04-15T12:56:14;9.20;1.00
15286;DHT22;7744;52.172;10.668;2023-04-15T12:58:40;9.20;99.90
15286;DHT22;7744;52.172;10.668;2023-04-15T13:01:05;9.30;99.90
15286;DHT22;7744;52.172;10.668;2023-04-15T13:03:31;9.30;99.90
15286;DHT22;7744;52.172;10.668;2023-04-15T13:05:56;9.20;99.90
15286;DHT22;7744;52.172;10.668;2023-04-15T13:08:22;9.20;1.00
15286;DHT22;7744;52.172;10.668;2023-04-15T13:10:48;9.20;1.00
15286;DHT22;7744;52.172;10.668;2023-04-15T13:13:13;9.20;99.90
15286;DHT22;7744;52.172;10.668;2023-04-15T13:15:40;9.20;1.00
15286;DHT22;7744;52.172;10.668;2023-04-15T13:18:05;9.30;1.00
15286;DHT22;7744;52.172;10.668;2023-04-15T13:20:31;9.20;1.00
15286;DHT22;7744;52.172;10.668;2023-04-15T13:22:57;9.30;99.90
15286;DHT22;7744;52.172;10.668;2023-04-15T13:25:22;9.40;1.00
15286;DHT22;7744;52.172;10.668;2023-04-15T13:27:48;9.40;99.90
15286;DHT22;7744;52.172;10.668;2023-04-15T13:30:14;9.50;1.00
15286;DHT22;7744;52.172;10.668;2023-04-15T13:32:40;9.40;99.90
15286;DHT22;7744;52.172;10.668;2023-04-15T13:35:05;9.40;1.00
15286;DHT22;7744;52.172;10.668;2023-04-15T13:37:31;8.30;99.90
15286;DHT22;7744;52.172;10.668;2023-04-15T13:39:56;9.40;99.90
15286;DHT22;7744;52.172;10.668;2023-04-15T13:42:23;9.40;99.90
15286;DHT22;7744;52.172;10.668;2023-04-15T13:44:49;9.30;99.90
15286;DHT22;7744;52.172;10.668;2023-04-15T13:47:16;9.40;99.90
15286;DHT22;7744;52.172;10.668;2023-04-15T13:49:42;9.50;99.90
15286;DHT22;7744;52.172;10.668;2023-04-15T13:52:08;9.40;99.90
15286;DHT22;7744;52.172;10.668;2023-04-15T13:54:33;9.50;1.00
15286;DHT22;7744;52.172;10.668;2023-04-15T13:56:59;9.40;1.00
15286;DHT22;7744;52.172;10.668;2023-04-15T13:59:26;9.50;1.00
15286;DHT22;7744;52.172;10.668;2023-04-15T14:01:51;9.50;1.00
15286;DHT22;7744;52.172;10.668;2023-04-15T14:04:17;9.60;99.90
15286;DHT22;7744;52.172;10.668;2023-04-15T14:06:43;9.60;1.00
15286;DHT22;7744;52.172;10.668;2023-04-15T14:09:09;9.60;99.90
15286;DHT22;7744;52.172;10.668;2023-04-15T14:11:34;9.70;99.90
15286;DHT22;7744;52.172;10.668;2023-04-15T14:14:01;9.60;99.90
15286;DHT22;7744;52.172;10.668;2023-04-15T14:16:26;9.50;1.00
15286;DHT22;7744;52.172;10.668;2023-04-15T14:18:52;9.50;99.90
15286;DHT22;7744;52.172;10.668;2023-04-15T14:21:18;9.50;99.90
15286;DHT22;7744;52.172;10.668;2023-04-15T14:23:43;9.60;1.00
15286;DHT22;7744;52.172;10.668;2023-04-15T14:26:09;9.60;99.90
15286;DHT22;7744;52.172;10.668;2023-04-15T14:28:34;9.60;1.00
15286;DHT22;7744;52.172;10.668;2023-04-15T14:31:02;9.50;1.00
15286;DHT22;7744;52.172;10.668;2023-04-15T14:33:28;9.50;1.00
15286;DHT22;7744;52.172;10.668;2023-04-15T14:35:53;9.50;1.00
15286;DHT22;7744;52.172;10.668;2023-04-15T14:38:19;9.50;97.10
15286;DHT22;7744;52.172;10.668;2023-04-15T14:40:47;9.50;1.00
15286;DHT22;7744;52.172;10.668;2023-04-15T14:43:12;9.50;1.00
15286;DHT22;7744;52.172;10.668;2023-04-15T14:45:38;9.50;45.30
15286;DHT22;7744;52.172;10.668;2023-04-15T14:48:04;9.50;96.20
15286;DHT22;7744;52.172;10.668;2023-04-15T14:50:31;9.60;99.90
15286;DHT22;7744;52.172;10.668;2023-04-15T14:52:57;9.50;99.90
15286;DHT22;7744;52.172;10.668;2023-04-15T14:55:23;9.50;99.90
15286;DHT22;7744;52.172;10.668;2023-04-15T14:57:49;9.60;99.90
15286;DHT22;7744;52.172;10.668;2023-04-15T15:00:14;9.50;99.90
15286;DHT22;7744;52.172;10.668;2023-04-15T15:02:40;9.50;1.00
15286;DHT22;7744;52.172;10.668;2023-04-15T15:05:08;9.50;1.00
15286;DHT22;7744;52.172;10.668;2023-04-15T15:07:34;10.10;1.00
15286;DHT22;7744;52.172;10.668;2023-04-15T15:10:01;9.60;1.00
15286;DHT22;7744;52.172;10.668;2023-04-15T15:12:27;9.60;1.00
15286;DHT22;7744;52.172;10.668;2023-04-15T15:14:54;9.60;1.00
15286;DHT22;7744;52.172;10.668;2023-04-15T15:17:20;9.50;1.00
15286;DHT22;7744;52.172;10.668;2023-04-15T15:19:46;9.60;1.00
15286;DHT22;7744;52.172;10.668;2023-04-15T15:22:11;9.60;1.00
15286;DHT22;7744;52.172;10.668;2023-04-15T15:24:37;9.70;37.00
15286;DHT22;7744;52.172;10.668;2023-04-15T15:27:03;9.70;74.90
15286;DHT22;7744;52.172;10.668;2023-04-15T15:29:28;9.70;94.80
15286;DHT22;7744;52.172;10.668;2023-04-15T15:31:54;9.80;99.90
15286;DHT22;7744;52.172;10.668;2023-04-15T15:34:19;9.80;97.40
15286;DHT22;7744;52.172;10.668;2023-04-15T15:36:45;9.80;96.60
15286;DHT22;7744;52.172;10.668;2023-04-15T15:39:10;9.80;99.90
15286;DHT22;7744;52.172;10.668;2023-04-15T15:41:36;9.80;99.90
15286;DHT22;7744;52.172;10.668;2023-04-15T15:44:02;9.80;99.70
15286;DHT22;7744;52.172;10.668;2023-04-15T15:46:27;9.90;99.90
15286;DHT22;7744;52.172;10.668;2023-04-15T15:48:56;9.90;99.90
15286;DHT22;7744;52.172;10.668;2023-04-15T15:51:21;9.90;99.90
15286;DHT22;7744;52.172;10.668;2023-04-15T15:53:47;9.90;99.90
15286;DHT22;7744;52.172;10.668;2023-04-15T15:56:12;9.90;99.90
15286;DHT22;7744;52.172;10.668;2023-04-15T15:58:38;9.90;99.90
15286;DHT22;7744;52.172;10.668;2023-04-15T16:01:04;9.90;99.90
15286;DHT22;7744;52.172;10.668;2023-04-15T16:03:30;9.90;99.90
15286;DHT22;7744;52.172;10.668;2023-04-15T16:05:55;10.90;99.90
15286;DHT22;7744;52.172;10.668;2023-04-15T16:08:21;9.90;99.90